createdAt,value
2018-07-03T00:00:17.321Z,14.47
2018-07-03T00:01:17.228Z,14.46
2018-07-03T00:02:17.143Z,14.39
2018-07-03T00:03:17.064Z,14.40
2018-07-03T00:04:16.976Z,14.47
2018-07-03T00:05:16.919Z,14.33
2018-07-03T00:06:16.830Z,14.35
2018-07-03T00:07:16.747Z,14.40
2018-07-03T00:08:16.667Z,14.32
2018-07-03T00:09:16.582Z,14.29
2018-07-03T00:10:16.522Z,14.35
2018-07-03T00:11:16.419Z,14.28
2018-07-03T00:12:16.345Z,14.32
2018-07-03T00:13:16.253Z,14.24
2018-07-03T00:14:16.177Z,14.32
2018-07-03T00:15:16.107Z,14.33
2018-07-03T00:16:16.020Z,14.33
2018-07-03T00:17:15.941Z,14.29
2018-07-03T00:18:15.852Z,14.32
2018-07-03T00:19:15.781Z,14.25
2018-07-03T00:20:15.705Z,14.32
2018-07-03T00:21:15.622Z,14.24
2018-07-03T00:22:15.546Z,14.24
2018-07-03T00:23:15.452Z,14.21
2018-07-03T00:24:15.378Z,14.27
2018-07-03T00:25:15.306Z,14.21
2018-07-03T00:26:15.221Z,14.18
2018-07-03T00:27:15.147Z,14.22
2018-07-03T00:28:15.059Z,14.21
2018-07-03T00:29:14.968Z,14.24
2018-07-03T00:30:14.893Z,14.21
2018-07-03T00:31:14.811Z,14.20
2018-07-03T00:32:14.739Z,14.22
2018-07-03T00:33:14.657Z,14.22
2018-07-03T00:34:14.573Z,14.27
2018-07-03T00:35:14.492Z,14.22
2018-07-03T00:36:14.404Z,14.24
2018-07-03T00:37:14.346Z,14.22
2018-07-03T00:38:14.249Z,14.25
2018-07-03T00:39:14.170Z,14.27
2018-07-03T00:40:14.083Z,14.25
2018-07-03T00:41:14.011Z,14.18
2018-07-03T00:42:13.943Z,14.17
2018-07-03T00:43:13.847Z,14.18
2018-07-03T00:44:13.772Z,14.17
2018-07-03T00:45:13.681Z,14.18
2018-07-03T00:46:13.605Z,14.22
2018-07-03T00:47:13.526Z,14.20
2018-07-03T00:48:13.450Z,14.17
2018-07-03T00:49:13.357Z,14.04
2018-07-03T00:50:13.283Z,14.10
2018-07-03T00:51:13.205Z,14.03
2018-07-03T00:52:13.119Z,14.06
2018-07-03T00:53:13.036Z,14.10
2018-07-03T00:54:12.959Z,14.04
2018-07-03T00:55:12.896Z,14.04
2018-07-03T00:56:12.796Z,14.02
2018-07-03T00:57:12.731Z,14.02
2018-07-03T00:58:12.638Z,14.07
2018-07-03T00:59:12.561Z,14.07
2018-07-03T01:00:12.474Z,14.07
2018-07-03T01:01:12.395Z,14.07
2018-07-03T01:02:12.308Z,13.97
2018-07-03T01:03:12.236Z,14.00
2018-07-03T01:04:12.161Z,13.99
2018-07-03T01:05:12.071Z,14.00
2018-07-03T01:06:11.995Z,13.99
2018-07-03T01:07:11.910Z,13.99
2018-07-03T01:08:11.835Z,13.96
2018-07-03T01:09:11.752Z,13.91
2018-07-03T01:10:11.678Z,13.95
2018-07-03T01:11:11.583Z,14.00
2018-07-03T01:12:11.520Z,13.88
2018-07-03T01:13:11.426Z,13.95
2018-07-03T01:14:11.349Z,13.87
2018-07-03T01:15:11.266Z,13.89
2018-07-03T01:16:11.189Z,13.87
2018-07-03T01:17:11.110Z,13.88
2018-07-03T01:18:11.024Z,13.85
2018-07-03T01:19:10.952Z,13.84
2018-07-03T01:20:10.865Z,13.75
2018-07-03T01:21:10.786Z,13.85
2018-07-03T01:22:10.707Z,13.85
2018-07-03T01:23:10.622Z,13.82
2018-07-03T01:24:10.535Z,13.77
2018-07-03T01:25:10.465Z,13.73
2018-07-03T01:26:10.376Z,13.71
2018-07-03T01:27:10.302Z,13.73
2018-07-03T01:28:10.225Z,13.73
2018-07-03T01:29:10.142Z,13.78
2018-07-03T01:30:10.069Z,13.75
2018-07-03T01:31:09.977Z,13.75
2018-07-03T01:32:09.903Z,13.73
2018-07-03T01:33:09.811Z,13.77
2018-07-03T01:34:09.738Z,13.70
2018-07-03T01:35:09.653Z,13.70
2018-07-03T01:36:09.595Z,13.77
2018-07-03T01:37:09.486Z,13.73
2018-07-03T01:38:09.411Z,13.73
2018-07-03T01:39:09.326Z,13.73
2018-07-03T01:40:09.251Z,13.82
2018-07-03T01:41:09.169Z,13.84
2018-07-03T01:42:09.094Z,13.81
2018-07-03T01:43:09.000Z,13.73
2018-07-03T01:44:08.926Z,13.73
2018-07-03T01:45:08.843Z,13.81
2018-07-03T01:46:08.766Z,13.81
2018-07-03T01:47:08.694Z,13.75
2018-07-03T01:48:08.608Z,13.71
2018-07-03T01:49:08.527Z,13.75
2018-07-03T01:50:08.439Z,13.79
2018-07-03T01:51:08.365Z,13.73
2018-07-03T01:52:08.277Z,13.64
2018-07-03T01:53:08.207Z,13.66
2018-07-03T01:54:08.119Z,13.69
2018-07-03T01:55:08.042Z,13.69
2018-07-03T01:56:07.956Z,13.66
2018-07-03T01:57:07.876Z,13.57
2018-07-03T01:58:07.788Z,13.59
2018-07-03T01:59:07.719Z,13.49
2018-07-03T02:00:07.633Z,13.51
2018-07-03T02:01:07.553Z,13.45
2018-07-03T02:02:07.467Z,13.45
2018-07-03T02:03:07.389Z,13.46
2018-07-03T02:04:07.314Z,13.45
2018-07-03T02:05:07.231Z,13.32
2018-07-03T02:06:07.156Z,13.39
2018-07-03T02:07:07.064Z,13.44
2018-07-03T02:08:06.989Z,13.36
2018-07-03T02:09:06.907Z,13.33
2018-07-03T02:10:06.831Z,13.38
2018-07-03T02:11:06.745Z,13.33
2018-07-03T02:12:06.671Z,13.46
2018-07-03T02:13:06.580Z,13.33
2018-07-03T02:14:06.506Z,13.28
2018-07-03T02:15:06.421Z,13.19
2018-07-03T02:16:06.344Z,13.20
2018-07-03T02:17:06.253Z,13.32
2018-07-03T02:18:06.180Z,13.28
2018-07-03T02:19:06.092Z,13.25
2018-07-03T02:20:06.018Z,13.25
2018-07-03T02:21:05.935Z,13.15
2018-07-03T02:22:05.860Z,13.28
2018-07-03T02:23:05.780Z,13.15
2018-07-03T02:24:05.693Z,13.14
2018-07-03T02:25:05.612Z,13.14
2018-07-03T02:26:05.535Z,13.05
2018-07-03T02:27:05.446Z,13.00
2018-07-03T02:28:05.384Z,13.04
2018-07-03T02:29:05.279Z,13.03
2018-07-03T02:30:05.206Z,13.00
2018-07-03T02:31:05.136Z,12.96
2018-07-03T02:32:05.048Z,12.92
2018-07-03T02:33:04.956Z,12.89
2018-07-03T02:34:04.885Z,12.90
2018-07-03T02:35:04.793Z,12.92
2018-07-03T02:36:04.718Z,12.90
2018-07-03T02:37:04.635Z,12.90
2018-07-03T02:38:04.560Z,12.89
2018-07-03T02:39:04.521Z,12.87
2018-07-03T02:40:04.406Z,12.86
2018-07-03T02:41:04.311Z,12.87
2018-07-03T02:42:04.236Z,12.85
2018-07-03T02:43:04.150Z,12.92
2018-07-03T02:44:04.075Z,12.89
2018-07-03T02:45:03.984Z,12.82
2018-07-03T02:46:03.908Z,12.85
2018-07-03T02:47:03.823Z,12.85
2018-07-03T02:48:03.749Z,12.79
2018-07-03T02:49:03.657Z,12.86
2018-07-03T02:50:03.582Z,12.74
2018-07-03T02:51:03.498Z,12.85
2018-07-03T02:52:03.424Z,12.83
2018-07-03T02:53:03.340Z,12.85
2018-07-03T02:54:03.263Z,12.79
2018-07-03T02:55:03.173Z,12.82
2018-07-03T02:56:03.094Z,12.83
2018-07-03T02:57:03.012Z,12.75
2018-07-03T02:58:02.938Z,12.87
2018-07-03T02:59:02.864Z,12.86
2018-07-03T03:00:02.783Z,12.86
2018-07-03T03:01:02.686Z,12.86
2018-07-03T03:02:02.611Z,12.86
2018-07-03T03:03:02.525Z,12.90
2018-07-03T03:04:02.451Z,12.87
2018-07-03T03:05:02.361Z,12.87
2018-07-03T03:06:02.287Z,12.85
2018-07-03T03:07:02.198Z,12.93
2018-07-03T03:08:02.124Z,12.89
2018-07-03T03:09:02.041Z,12.93
2018-07-03T03:10:01.966Z,12.96
2018-07-03T03:11:01.887Z,12.97
2018-07-03T03:12:01.803Z,12.93
2018-07-03T03:13:01.716Z,12.96
2018-07-03T03:14:01.641Z,12.96
2018-07-03T03:15:01.551Z,13.00
2018-07-03T03:16:01.480Z,13.05
2018-07-03T03:17:01.385Z,13.00
2018-07-03T03:18:01.310Z,13.00
2018-07-03T03:19:01.228Z,13.11
2018-07-03T03:20:01.154Z,13.19
2018-07-03T03:21:01.063Z,13.11
2018-07-03T03:22:00.989Z,13.23
2018-07-03T03:23:00.899Z,13.26
2018-07-03T03:24:00.823Z,13.29
2018-07-03T03:25:00.752Z,13.32
2018-07-03T03:26:00.665Z,13.33
2018-07-03T03:27:00.576Z,13.28
2018-07-03T03:28:00.500Z,13.28
2018-07-03T03:29:00.416Z,13.20
2018-07-03T03:30:00.341Z,13.29
2018-07-03T03:31:00.255Z,13.36
2018-07-03T03:32:00.194Z,13.32
2018-07-03T03:33:00.091Z,13.29
2018-07-03T03:34:00.019Z,13.33
2018-07-03T03:34:59.928Z,13.36
2018-07-03T03:35:59.854Z,13.33
2018-07-03T03:36:59.764Z,13.41
2018-07-03T03:37:59.687Z,13.38
2018-07-03T03:38:59.601Z,13.39
2018-07-03T03:39:59.529Z,13.28
2018-07-03T03:40:59.459Z,13.38
2018-07-03T03:41:59.369Z,13.38
2018-07-03T03:42:59.290Z,13.46
2018-07-03T03:43:59.202Z,13.38
2018-07-03T03:44:59.121Z,13.41
2018-07-03T03:45:59.044Z,13.51
2018-07-03T03:46:58.957Z,13.49
2018-07-03T03:47:58.893Z,13.52
2018-07-03T03:48:58.789Z,13.52
2018-07-03T03:49:58.715Z,13.55
2018-07-03T03:50:58.635Z,13.57
2018-07-03T03:51:58.557Z,13.63
2018-07-03T03:52:58.466Z,13.64
2018-07-03T03:53:58.391Z,13.62
2018-07-03T03:54:58.303Z,13.66
2018-07-03T03:55:58.227Z,13.66
2018-07-03T03:56:58.155Z,13.67
2018-07-03T03:57:58.068Z,13.63
2018-07-03T03:58:57.992Z,13.66
2018-07-03T03:59:57.904Z,13.71
2018-07-03T04:00:57.876Z,13.75
2018-07-03T04:01:57.747Z,13.71
2018-07-03T04:02:57.669Z,13.70
2018-07-03T04:03:57.583Z,13.75
2018-07-03T04:04:57.504Z,13.77
2018-07-03T04:05:57.415Z,13.84
2018-07-03T04:06:57.347Z,13.84
2018-07-03T04:07:57.259Z,13.91
2018-07-03T04:08:57.180Z,13.89
2018-07-03T04:09:57.094Z,13.92
2018-07-03T04:10:57.018Z,13.97
2018-07-03T04:11:56.928Z,13.97
2018-07-03T04:12:56.858Z,14.07
2018-07-03T04:13:56.771Z,14.12
2018-07-03T04:14:56.693Z,14.18
2018-07-03T04:15:56.605Z,14.22
2018-07-03T04:16:56.533Z,14.28
2018-07-03T04:17:56.446Z,14.32
2018-07-03T04:18:56.373Z,14.22
2018-07-03T04:19:56.299Z,14.28
2018-07-03T04:20:56.206Z,14.45
2018-07-03T04:21:56.131Z,14.35
2018-07-03T04:22:56.047Z,14.35
2018-07-03T04:23:55.971Z,14.42
2018-07-03T04:24:55.879Z,14.51
2018-07-03T04:25:55.806Z,14.57
2018-07-03T04:26:55.721Z,14.65
2018-07-03T04:27:55.645Z,14.70
2018-07-03T04:28:55.562Z,14.65
2018-07-03T04:29:55.485Z,14.73
2018-07-03T04:30:55.407Z,14.88
2018-07-03T04:31:55.321Z,14.96
2018-07-03T04:32:55.250Z,15.02
2018-07-03T04:33:55.161Z,15.03
2018-07-03T04:34:55.085Z,15.20
2018-07-03T04:35:55.000Z,15.28
2018-07-03T04:36:54.919Z,15.46
2018-07-03T04:37:54.831Z,15.44
2018-07-03T04:38:54.775Z,15.53
2018-07-03T04:39:54.676Z,15.65
2018-07-03T04:40:54.598Z,16.00
2018-07-03T04:41:54.522Z,16.53
2018-07-03T04:42:54.431Z,16.98
2018-07-03T04:43:54.369Z,17.44
2018-07-03T04:44:54.277Z,17.90
2018-07-03T04:45:54.201Z,18.15
2018-07-03T04:46:54.171Z,18.48
2018-07-03T04:47:54.032Z,18.65
2018-07-03T04:48:53.974Z,18.87
2018-07-03T04:49:53.874Z,19.25
2018-07-03T04:50:53.807Z,19.37
2018-07-03T04:51:53.714Z,19.48
2018-07-03T04:52:53.634Z,19.47
2018-07-03T04:53:53.560Z,19.78
2018-07-03T04:54:53.475Z,19.96
2018-07-03T04:55:53.404Z,20.02
2018-07-03T04:56:53.321Z,20.03
2018-07-03T04:57:53.233Z,20.13
2018-07-03T04:58:53.165Z,20.26
2018-07-03T04:59:53.085Z,20.47
2018-07-03T05:00:53.016Z,20.48
2018-07-03T05:01:52.928Z,20.26
2018-07-03T05:02:52.847Z,20.13
2018-07-03T05:03:52.771Z,19.94
2018-07-03T05:04:52.701Z,19.58
2018-07-03T05:05:52.613Z,19.26
2018-07-03T05:06:52.540Z,19.10
2018-07-03T05:07:52.465Z,19.19
2018-07-03T05:08:52.374Z,19.22
2018-07-03T05:09:52.299Z,19.11
2018-07-03T05:10:52.227Z,18.95
2018-07-03T05:11:52.152Z,18.87
2018-07-03T05:12:52.060Z,18.87
2018-07-03T05:13:51.986Z,18.75
2018-07-03T05:14:51.911Z,18.63
2018-07-03T05:15:51.836Z,18.62
2018-07-03T05:16:51.754Z,18.33
2018-07-03T05:17:51.687Z,18.30
2018-07-03T05:18:51.601Z,18.27
2018-07-03T05:19:51.514Z,18.26
2018-07-03T05:20:51.455Z,18.18
2018-07-03T05:21:51.367Z,18.25
2018-07-03T05:22:51.290Z,18.27
2018-07-03T05:23:51.203Z,18.23
2018-07-03T05:24:51.127Z,18.10
2018-07-03T05:25:51.050Z,18.03
2018-07-03T05:26:50.981Z,18.05
2018-07-03T05:27:50.892Z,18.17
2018-07-03T05:28:50.814Z,18.23
2018-07-03T05:29:50.739Z,18.14
2018-07-03T05:30:50.649Z,18.07
2018-07-03T05:31:50.575Z,18.15
2018-07-03T05:32:50.504Z,18.07
2018-07-03T05:33:50.430Z,18.05
2018-07-03T05:34:50.337Z,18.14
2018-07-03T05:35:50.275Z,18.02
2018-07-03T05:36:50.193Z,18.02
2018-07-03T05:37:50.105Z,18.11
2018-07-03T05:38:50.033Z,18.08
2018-07-03T05:39:49.957Z,18.25
2018-07-03T05:40:49.878Z,18.29
2018-07-03T05:41:49.790Z,18.08
2018-07-03T05:42:49.758Z,18.20
2018-07-03T05:43:49.643Z,18.26
2018-07-03T05:44:49.554Z,18.18
2018-07-03T05:45:49.477Z,18.23
2018-07-03T05:46:49.405Z,18.23
2018-07-03T05:47:49.330Z,18.30
2018-07-03T05:48:49.245Z,18.26
2018-07-03T05:49:49.173Z,18.32
2018-07-03T05:50:49.091Z,18.44
2018-07-03T05:51:49.005Z,18.29
2018-07-03T05:52:48.934Z,18.32
2018-07-03T05:53:48.859Z,18.44
2018-07-03T05:54:48.770Z,18.42
2018-07-03T05:55:48.711Z,18.36
2018-07-03T05:56:48.616Z,18.35
2018-07-03T05:57:48.543Z,18.37
2018-07-03T05:58:48.460Z,18.45
2018-07-03T05:59:48.384Z,18.52
2018-07-03T06:00:48.306Z,18.52
2018-07-03T06:01:48.230Z,18.58
2018-07-03T06:02:48.141Z,18.62
2018-07-03T06:03:48.070Z,18.66
2018-07-03T06:04:47.995Z,18.66
2018-07-03T06:05:47.908Z,18.63
2018-07-03T06:06:47.835Z,18.65
2018-07-03T06:07:47.765Z,18.70
2018-07-03T06:08:47.667Z,18.58
2018-07-03T06:09:47.592Z,18.81
2018-07-03T06:10:47.521Z,18.85
2018-07-03T06:11:47.444Z,18.80
2018-07-03T06:12:47.365Z,18.91
2018-07-03T06:13:47.286Z,18.90
2018-07-03T06:14:47.244Z,18.99
2018-07-03T06:15:47.132Z,18.95
2018-07-03T06:16:47.048Z,19.00
2018-07-03T06:17:46.971Z,19.10
2018-07-03T06:18:46.900Z,19.11
2018-07-03T06:19:46.824Z,19.21
2018-07-03T06:20:46.733Z,19.23
2018-07-03T06:21:46.659Z,19.22
2018-07-03T06:22:46.603Z,19.33
2018-07-03T06:23:46.500Z,19.29
2018-07-03T06:24:46.420Z,19.40
2018-07-03T06:25:46.358Z,19.44
2018-07-03T06:26:46.268Z,19.40
2018-07-03T06:27:46.182Z,19.39
2018-07-03T06:28:46.122Z,19.46
2018-07-03T06:29:46.037Z,19.55
2018-07-03T06:30:45.960Z,19.55
2018-07-03T06:31:45.872Z,19.56
2018-07-03T06:32:45.801Z,19.59
2018-07-03T06:33:45.725Z,19.77
2018-07-03T06:34:45.668Z,19.77
2018-07-03T06:35:45.713Z,19.68
2018-07-03T06:36:45.482Z,19.76
2018-07-03T06:37:45.408Z,19.78
2018-07-03T06:38:45.336Z,19.87
2018-07-03T06:39:45.262Z,19.86
2018-07-03T06:40:45.170Z,19.86
2018-07-03T06:41:45.095Z,19.96
2018-07-03T06:42:45.024Z,19.99
2018-07-03T06:43:44.947Z,20.06
2018-07-03T06:44:44.924Z,20.08
2018-07-03T06:45:44.790Z,20.08
2018-07-03T06:46:44.708Z,20.03
2018-07-03T06:47:44.633Z,20.17
2018-07-03T06:48:44.552Z,20.13
2018-07-03T06:49:44.475Z,20.18
2018-07-03T06:50:44.402Z,20.24
2018-07-03T06:51:44.374Z,20.32
2018-07-03T06:52:44.300Z,20.33
2018-07-03T06:53:44.165Z,20.50
2018-07-03T06:54:44.090Z,20.48
2018-07-03T06:55:44.017Z,20.58
2018-07-03T06:56:43.936Z,20.64
2018-07-03T06:57:43.862Z,20.61
2018-07-03T06:58:43.785Z,20.70
2018-07-03T06:59:43.697Z,20.77
2018-07-03T07:00:43.627Z,20.88
2018-07-03T07:01:43.551Z,20.98
2018-07-03T07:02:43.475Z,20.98
2018-07-03T07:03:43.400Z,20.97
2018-07-03T07:04:43.328Z,21.12
2018-07-03T07:05:43.242Z,21.22
2018-07-03T07:06:43.164Z,21.22
2018-07-03T07:07:43.090Z,21.25
2018-07-03T07:08:43.094Z,21.21
2018-07-03T07:09:42.997Z,21.35
2018-07-03T07:10:42.854Z,21.25
2018-07-03T07:11:42.780Z,21.38
2018-07-03T07:12:42.700Z,21.42
2018-07-03T07:13:42.626Z,21.46
2018-07-03T07:14:42.549Z,21.54
2018-07-03T07:15:42.474Z,21.62
2018-07-03T07:16:42.394Z,21.74
2018-07-03T07:17:42.316Z,21.79
2018-07-03T07:18:42.250Z,21.98
2018-07-03T07:19:42.164Z,21.90
2018-07-03T07:20:42.093Z,22.05
2018-07-03T07:21:42.018Z,22.02
2018-07-03T07:22:41.948Z,22.05
2018-07-03T07:23:41.867Z,22.10
2018-07-03T07:24:41.775Z,22.22
2018-07-03T07:25:41.714Z,22.31
2018-07-03T07:26:41.629Z,22.45
2018-07-03T07:27:41.555Z,22.42
2018-07-03T07:28:41.476Z,22.60
2018-07-03T07:29:41.401Z,22.67
2018-07-03T07:30:41.330Z,22.54
2018-07-03T07:31:41.253Z,22.70
2018-07-03T07:32:41.182Z,22.64
2018-07-03T07:33:41.109Z,22.76
2018-07-03T07:34:41.026Z,22.86
2018-07-03T07:35:40.954Z,22.94
2018-07-03T07:36:40.869Z,23.10
2018-07-03T07:37:40.794Z,23.39
2018-07-03T07:38:40.720Z,23.48
2018-07-03T07:39:40.646Z,23.22
2018-07-03T07:40:40.567Z,23.28
2018-07-03T07:41:40.494Z,23.27
2018-07-03T07:42:40.458Z,23.19
2018-07-03T07:43:40.345Z,23.31
2018-07-03T07:44:40.272Z,23.25
2018-07-03T07:45:40.194Z,23.42
2018-07-03T07:46:40.116Z,23.72
2018-07-03T07:47:40.047Z,24.10
2018-07-03T07:48:39.970Z,24.43
2018-07-03T07:49:39.896Z,25.10
2018-07-03T07:50:39.818Z,25.73
2018-07-03T07:51:39.755Z,26.01
2018-07-03T07:52:39.684Z,26.67
2018-07-03T07:53:39.609Z,26.85
2018-07-03T07:54:39.532Z,27.06
2018-07-03T07:55:39.457Z,27.60
2018-07-03T07:56:39.378Z,28.14
2018-07-03T07:57:39.316Z,28.22
2018-07-03T07:58:39.247Z,28.02
2018-07-03T07:59:39.171Z,28.21
2018-07-03T08:00:39.106Z,28.44
2018-07-03T08:01:39.041Z,28.30
2018-07-03T08:02:38.957Z,28.61
2018-07-03T08:03:38.894Z,29.02
2018-07-03T08:04:38.823Z,28.93
2018-07-03T08:05:38.762Z,29.09
2018-07-03T08:06:38.712Z,28.39
2018-07-03T08:07:38.618Z,29.02
2018-07-03T08:08:38.547Z,29.36
2018-07-03T08:09:38.483Z,29.52
2018-07-03T08:10:38.421Z,29.78
2018-07-03T08:11:38.350Z,29.79
2018-07-03T08:12:38.281Z,29.48
2018-07-03T08:13:38.207Z,29.61
2018-07-03T08:14:38.145Z,29.73
2018-07-03T08:15:38.083Z,30.05
2018-07-03T08:16:38.013Z,29.83
2018-07-03T08:17:37.949Z,29.55
2018-07-03T08:18:37.885Z,29.45
2018-07-03T08:19:37.810Z,29.43
2018-07-03T08:20:37.744Z,29.21
2018-07-03T08:21:37.680Z,29.26
2018-07-03T08:22:37.612Z,29.79
2018-07-03T08:23:37.551Z,30.02
2018-07-03T08:24:37.483Z,30.35
2018-07-03T08:25:37.408Z,30.29
2018-07-03T08:26:37.365Z,30.07
2018-07-03T08:27:37.281Z,29.53
2018-07-03T08:28:37.224Z,29.24
2018-07-03T08:29:37.148Z,29.42
2018-07-03T08:30:37.094Z,29.70
2018-07-03T08:31:37.025Z,29.97
2018-07-03T08:32:36.961Z,29.68
2018-07-03T08:33:36.899Z,30.23
2018-07-03T08:34:36.828Z,30.86
2018-07-03T08:35:36.763Z,30.94
2018-07-03T08:36:36.697Z,30.70
2018-07-03T08:37:36.634Z,30.54
2018-07-03T08:38:36.566Z,29.82
2018-07-03T08:39:36.500Z,30.51
2018-07-03T08:40:36.432Z,30.35
2018-07-03T08:41:36.370Z,30.69
2018-07-03T08:42:36.309Z,30.83
2018-07-03T08:43:36.235Z,30.88
2018-07-03T08:44:36.177Z,30.16
2018-07-03T08:45:36.114Z,30.49
2018-07-03T08:46:36.048Z,30.69
2018-07-03T08:47:35.989Z,30.84
2018-07-03T08:48:35.916Z,31.09
2018-07-03T08:49:35.853Z,31.29
2018-07-03T08:50:35.789Z,30.80
2018-07-03T08:51:35.767Z,30.65
2018-07-03T08:52:35.659Z,31.13
2018-07-03T08:53:35.596Z,30.79
2018-07-03T08:54:35.540Z,30.51
2018-07-03T08:55:35.467Z,30.31
2018-07-03T08:56:35.400Z,29.97
2018-07-03T08:57:35.337Z,29.73
2018-07-03T08:58:35.275Z,30.46
2018-07-03T08:59:35.210Z,30.24
2018-07-03T09:00:35.152Z,29.92
2018-07-03T09:01:35.090Z,29.09
2018-07-03T09:02:35.012Z,29.24
2018-07-03T09:03:34.948Z,29.58
2018-07-03T09:04:34.890Z,29.82
2018-07-03T09:05:34.828Z,30.17
2018-07-03T09:06:34.766Z,30.39
2018-07-03T09:07:34.705Z,30.60
2018-07-03T09:08:34.637Z,30.95
2018-07-03T09:09:34.576Z,31.34
2018-07-03T09:10:34.514Z,30.70
2018-07-03T09:11:34.453Z,30.83
2018-07-03T09:12:34.374Z,30.94
2018-07-03T09:13:34.311Z,31.34
2018-07-03T09:14:34.251Z,31.66
2018-07-03T09:15:34.190Z,31.93
2018-07-03T09:16:34.132Z,32.29
2018-07-03T09:17:34.068Z,31.81
2018-07-03T09:18:33.999Z,31.34
2018-07-03T09:19:33.936Z,31.09
2018-07-03T09:20:33.878Z,31.02
2018-07-03T09:21:33.805Z,31.10
2018-07-03T09:22:33.744Z,30.97
2018-07-03T09:23:33.748Z,30.46
2018-07-03T09:24:33.628Z,31.12
2018-07-03T09:25:33.552Z,31.47
2018-07-03T09:26:33.491Z,31.80
2018-07-03T09:27:33.430Z,31.48
2018-07-03T09:28:33.365Z,32.15
2018-07-03T09:29:33.301Z,32.28
2018-07-03T09:30:33.243Z,32.25
2018-07-03T09:31:33.178Z,32.07
2018-07-03T09:32:33.120Z,32.13
2018-07-03T09:33:33.057Z,31.29
2018-07-03T09:34:32.990Z,31.76
2018-07-03T09:35:32.929Z,31.85
2018-07-03T09:36:32.859Z,32.25
2018-07-03T09:37:32.796Z,32.65
2018-07-03T09:38:32.731Z,32.69
2018-07-03T09:39:32.681Z,33.01
2018-07-03T09:40:32.610Z,33.28
2018-07-03T09:41:32.539Z,33.31
2018-07-03T09:42:32.533Z,33.38
2018-07-03T09:43:32.421Z,33.15
2018-07-03T09:44:32.355Z,32.66
2018-07-03T09:45:32.292Z,31.63
2018-07-03T09:46:32.228Z,32.10
2018-07-03T09:47:32.179Z,32.40
2018-07-03T09:48:32.107Z,32.65
2018-07-03T09:49:32.048Z,32.19
2018-07-03T09:50:31.979Z,32.03
2018-07-03T09:51:31.916Z,32.04
2018-07-03T09:52:31.857Z,32.15
2018-07-03T09:53:31.795Z,31.73
2018-07-03T09:54:31.739Z,31.72
2018-07-03T09:55:31.674Z,32.19
2018-07-03T09:56:31.606Z,31.80
2018-07-03T09:57:31.544Z,31.31
2018-07-03T09:58:31.496Z,31.09
2018-07-03T09:59:31.434Z,31.13
2018-07-03T10:00:31.369Z,31.26
2018-07-03T10:01:31.311Z,30.24
2018-07-03T10:02:31.245Z,30.32
2018-07-03T10:03:31.182Z,30.32
2018-07-03T10:04:31.123Z,30.88
2018-07-03T10:05:31.063Z,30.70
2018-07-03T10:06:30.996Z,31.35
2018-07-03T10:07:30.932Z,31.75
2018-07-03T10:08:30.873Z,32.06
2018-07-03T10:09:30.811Z,31.73
2018-07-03T10:10:30.747Z,31.50
2018-07-03T10:11:30.685Z,31.47
2018-07-03T10:12:30.606Z,31.23
2018-07-03T10:13:30.544Z,30.97
2018-07-03T10:14:30.487Z,30.75
2018-07-03T10:15:30.424Z,30.67
2018-07-03T10:16:30.362Z,30.26
2018-07-03T10:17:30.296Z,30.24
2018-07-03T10:18:30.232Z,29.41
2018-07-03T10:19:30.168Z,29.21
2018-07-03T10:20:30.110Z,29.21
2018-07-03T10:21:30.049Z,29.24
2018-07-03T10:22:29.974Z,28.70
2018-07-03T10:23:29.911Z,28.40
2018-07-03T10:24:29.844Z,28.58
2018-07-03T10:25:29.829Z,28.80
2018-07-03T10:26:29.713Z,28.70
2018-07-03T10:27:29.649Z,27.88
2018-07-03T10:28:29.589Z,28.11
2018-07-03T10:29:29.514Z,28.39
2018-07-03T10:30:29.445Z,28.56
2018-07-03T10:31:29.386Z,28.76
2018-07-03T10:32:29.312Z,28.58
2018-07-03T10:33:29.249Z,28.49
2018-07-03T10:34:29.189Z,28.61
2018-07-03T10:35:29.113Z,28.46
2018-07-03T10:36:29.047Z,28.41
2018-07-03T10:37:28.973Z,28.51
2018-07-03T10:38:28.914Z,28.58
2018-07-03T10:39:28.852Z,28.58
2018-07-03T10:40:28.773Z,28.51
2018-07-03T10:41:28.711Z,28.67
2018-07-03T10:42:28.633Z,28.76
2018-07-03T10:43:28.575Z,28.58
2018-07-03T10:44:28.512Z,28.44
2018-07-03T10:45:28.439Z,28.43
2018-07-03T10:46:28.361Z,28.59
2018-07-03T10:47:28.311Z,28.81
2018-07-03T10:48:28.227Z,29.12
2018-07-03T10:49:28.166Z,29.67
2018-07-03T10:50:28.090Z,30.26
2018-07-03T10:51:28.026Z,31.04
2018-07-03T10:52:27.964Z,31.68
2018-07-03T10:53:27.885Z,31.88
2018-07-03T10:54:27.826Z,32.26
2018-07-03T10:55:27.764Z,31.96
2018-07-03T10:56:27.685Z,31.19
2018-07-03T10:57:27.622Z,31.07
2018-07-03T10:58:27.563Z,31.75
2018-07-03T10:59:27.524Z,31.91
2018-07-03T11:00:27.442Z,31.58
2018-07-03T11:01:27.379Z,32.11
2018-07-03T11:02:27.297Z,32.25
2018-07-03T11:03:27.236Z,32.52
2018-07-03T11:04:27.177Z,33.16
2018-07-03T11:05:27.116Z,33.39
2018-07-03T11:06:27.054Z,33.79
2018-07-03T11:07:26.993Z,33.60
2018-07-03T11:08:26.928Z,33.93
2018-07-03T11:09:26.852Z,33.84
2018-07-03T11:10:26.805Z,34.44
2018-07-03T11:11:26.731Z,34.28
2018-07-03T11:12:26.665Z,33.01
2018-07-03T11:13:26.602Z,32.26
2018-07-03T11:14:26.540Z,32.48
2018-07-03T11:15:26.475Z,33.18
2018-07-03T11:16:26.451Z,33.56
2018-07-03T11:17:26.355Z,33.88
2018-07-03T11:18:26.291Z,34.02
2018-07-03T11:19:26.244Z,33.56
2018-07-03T11:20:26.182Z,33.45
2018-07-03T11:21:26.121Z,33.49
2018-07-03T11:22:26.056Z,34.08
2018-07-03T11:23:25.994Z,34.78
2018-07-03T11:24:25.929Z,34.50
2018-07-03T11:25:25.864Z,34.43
2018-07-03T11:26:25.808Z,35.06
2018-07-03T11:27:25.746Z,35.36
2018-07-03T11:28:25.691Z,34.64
2018-07-03T11:29:25.623Z,34.99
2018-07-03T11:30:25.552Z,33.87
2018-07-03T11:31:25.492Z,33.21
2018-07-03T11:32:25.431Z,33.47
2018-07-03T11:33:25.371Z,33.61
2018-07-03T11:34:25.318Z,34.06
2018-07-03T11:35:25.256Z,33.82
2018-07-03T11:36:25.196Z,33.91
2018-07-03T11:37:25.133Z,33.09
2018-07-03T11:38:25.071Z,33.26
2018-07-03T11:39:25.010Z,32.65
2018-07-03T11:40:24.941Z,32.93
2018-07-03T11:41:24.890Z,32.63
2018-07-03T11:42:24.822Z,33.37
2018-07-03T11:43:24.759Z,33.94
2018-07-03T11:44:24.691Z,33.68
2018-07-03T11:45:24.641Z,34.31
2018-07-03T11:46:24.581Z,33.91
2018-07-03T11:47:24.519Z,33.47
2018-07-03T11:48:24.460Z,33.41
2018-07-03T11:49:24.398Z,32.85
2018-07-03T11:50:24.329Z,33.42
2018-07-03T11:51:24.267Z,33.32
2018-07-03T11:52:24.220Z,32.03
2018-07-03T11:53:24.146Z,31.28
2018-07-03T11:54:24.086Z,31.46
2018-07-03T11:55:24.035Z,31.93
2018-07-03T11:56:23.969Z,32.26
2018-07-03T11:57:23.906Z,32.25
2018-07-03T11:58:23.849Z,31.93
2018-07-03T11:59:23.786Z,32.66
2018-07-03T12:00:23.721Z,33.63
2018-07-03T12:01:23.692Z,34.15
2018-07-03T12:02:23.593Z,34.75
2018-07-03T12:03:23.530Z,35.10
2018-07-03T12:04:23.472Z,35.40
2018-07-03T12:05:23.411Z,34.72
2018-07-03T12:06:23.349Z,34.75
2018-07-03T12:07:23.283Z,35.33
2018-07-03T12:08:23.227Z,35.38
2018-07-03T12:09:23.175Z,35.25
2018-07-03T12:10:23.109Z,35.66
2018-07-03T12:11:23.049Z,35.99
2018-07-03T12:12:22.981Z,35.82
2018-07-03T12:13:22.919Z,35.58
2018-07-03T12:14:22.861Z,35.03
2018-07-03T12:15:22.799Z,34.89
2018-07-03T12:16:22.731Z,34.96
2018-07-03T12:17:22.670Z,35.18
2018-07-03T12:18:22.609Z,35.00
2018-07-03T12:19:22.559Z,34.30
2018-07-03T12:20:22.507Z,34.78
2018-07-03T12:21:22.438Z,34.44
2018-07-03T12:22:22.370Z,34.53
2018-07-03T12:23:22.307Z,34.61
2018-07-03T12:24:22.250Z,34.30
2018-07-03T12:25:22.200Z,34.02
2018-07-03T12:26:22.128Z,33.86
2018-07-03T12:27:22.064Z,33.23
2018-07-03T12:28:21.998Z,33.82
2018-07-03T12:29:21.936Z,34.31
2018-07-03T12:30:21.872Z,34.59
2018-07-03T12:31:21.808Z,34.46
2018-07-03T12:32:21.762Z,34.59
2018-07-03T12:33:21.703Z,34.75
2018-07-03T12:34:21.641Z,35.00
2018-07-03T12:35:21.577Z,34.72
2018-07-03T12:36:21.512Z,33.91
2018-07-03T12:37:21.449Z,32.65
2018-07-03T12:38:21.389Z,32.60
2018-07-03T12:39:21.327Z,32.25
2018-07-03T12:40:21.261Z,32.44
2018-07-03T12:41:21.197Z,32.23
2018-07-03T12:42:21.137Z,32.25
2018-07-03T12:43:21.075Z,32.85
2018-07-03T12:44:21.019Z,33.03
2018-07-03T12:45:20.955Z,32.33
2018-07-03T12:46:20.889Z,32.94
2018-07-03T12:47:20.836Z,33.63
2018-07-03T12:48:20.768Z,34.16
2018-07-03T12:49:20.716Z,34.89
2018-07-03T12:50:20.653Z,34.39
2018-07-03T12:51:20.601Z,33.71